Terminal Aerodrome Forecast
Issued by NWS

Home | Current Version | Previous Version | Text Only | Print | Product List | Glossary Off
Versions: 1 2 3 4 5 6 7 8 9 10 11 12 13 14 15 16 17 18

000
FTUS43 KOAX 161446 AAA
TAFCDR
TAF AMD
KCDR 161446Z 1615/1712 33010KT P6SM VCSH OVC040
     FM161700 01012KT P6SM -SHRA OVC030
     FM170000 02012KT P6SM VCSH SCT020 BKN035=

USA.gov is the U.S. government's official web portal to all federal, state and local government web resources and services.